• Join FlightAware (Why Join?)
  • Login
  • US Flag 
01:28PM EST


 

Airport Tracker/Info


-or-


 

Live Flight TrackerFlight Track Log ✈ JZA7655 ✈ 19-Dec-2013 ✈ KDCA - CYUL

Flight Track Log - Related Links

Times and Time Zones

All times are in EST time to prevent confusion due to time zone crossing. See the JZA7655 flight status page for this flight to view local times or setup timezone preferences in your user account.

Time Position Orientation Groundspeed Altitude Reporting Facility
EST Latitude Longitude Course Direction KTS MPH feet Rate Location/Type
05:07PM 38.8539 -77.0385 343° North  Level FlightAware Approximate
05:08PM 38.8167 -77.0333 342° North 152 175 1,800  Level Potomac TRACON
05:09PM 39.0782 -77.1566 336° Northwest  Level FlightAware Approximate
05:09PM 38.7667 -77.0333 180° South 201 231 4,500  Level Potomac TRACON
05:10PM 39.1950 -77.2206 346° North  Level FlightAware Approximate
05:10PM 38.7500 -77.1000 252° West 161 185 8,400  Level Potomac TRACON
05:11PM 39.3120 -77.2770 337° Northwest  Level FlightAware Approximate
05:11PM 38.7500 -77.1500 270° West 200 230 10,700  Level Potomac TRACON
05:12PM 39.4293 -77.3320 346° North  Level FlightAware Approximate
05:12PM 38.8000 -77.2000 322° Northwest 257 296 12,600  Level Potomac TRACON
05:13PM 39.5417 -77.4012 342° North  Level FlightAware Approximate
05:13PM 38.8667 -77.2667 322° Northwest 272 313 14,600  Level Potomac TRACON
05:15PM 39.0044 -77.3758 328° Northwest 328 377 17,000 840 Climbing Washington Center
05:16PM 39.0908 -77.4450 328° Northwest 345 397 17,000 480 Level Washington Center
05:17PM 39.2756 -77.4525 358° North 390 449 18,300 1,080 Climbing New York Center
05:18PM 39.3883 -77.4522 360° North 401 461 20,000 1,560 Climbing New York Center
05:19PM 39.5008 -77.4547 359° North 401 461 21,500 1,500 Climbing New York Center
05:20PM 39.6133 -77.4547 360° North 401 461 23,000 1,440 Climbing New York Center
05:21PM 39.7261 -77.4547 360° North 401 461 24,400 1,320 Climbing New York Center
05:22PM 39.8389 -77.4519 North 401 461 25,700 1,260 Climbing New York Center
05:23PM 39.9472 -77.4514 360° North 401 461 27,000 1,260 Climbing New York Center
05:24PM 40.0581 -77.4483 North 401 461 28,300 1,200 Climbing New York Center
05:25PM 40.1631 -77.4339 North 396 456 29,400 1,020 Climbing New York Center
05:26PM 40.2708 -77.4089 10° North 389 448 30,400 900 Climbing New York Center
05:27PM 40.3931 -77.3825 North 399 459 31,200 720 Climbing New York Center
05:28PM 40.5031 -77.3575 10° North 399 459 31,900 660 Climbing New York Center
05:29PM 40.6144 -77.3381 North 394 453 32,600 540 Climbing New York Center
05:30PM 40.7239 -77.3186 North 394 453 33,000 180 Climbing New York Center
05:31PM 40.8400 -77.2911 10° North 400 460 33,000  Level New York Center
05:32PM 40.9561 -77.2667 North 412 474 33,000  Level New York Center
05:33PM 41.0783 -77.2425 North 424 488 33,000  Level New York Center
05:34PM 41.2047 -77.2161 North 437 503 33,000  Level New York Center
05:35PM 41.3289 -77.1919 North 449 517 33,000  Level New York Center
05:36PM 41.4556 -77.1625 10° North 449 517 33,000  Level New York Center
05:37PM 41.5842 -77.1358 North 454 522 33,000  Level New York Center
05:38PM 41.7106 -77.1064 10° North 454 522 33,000  Level New York Center
05:40PM 41.8797 -77.0694 North 463 533 33,000  Level Cleveland Center
05:41PM 42.0056 -77.0428 North 461 531 33,000  Level Cleveland Center
05:42PM 42.1547 -76.9781 18° North 478 550 33,000  Level Cleveland Center
05:43PM 42.2764 -76.8869 29° Northeast 497 572 33,000  Level Cleveland Center
05:44PM 42.3947 -76.7944 30° Northeast 497 572 33,000  Level Cleveland Center
05:45PM 42.5144 -76.7033 29° Northeast 497 572 33,000  Level Cleveland Center
05:46PM 42.6342 -76.6114 29° Northeast 497 572 33,000  Level Cleveland Center
05:47PM 42.7661 -76.5111 29° Northeast 498 573 33,000  Level Cleveland Center
05:48PM 42.8875 -76.4169 30° Northeast 500 575 33,000  Level Cleveland Center
05:49PM 43.0083 -76.3211 30° Northeast 502 578 33,000  Level Cleveland Center
05:50PM 43.1572 -76.2153 27° Northeast 500 575 33,000  Level Cleveland Center
05:51PM 43.2850 -76.1844 10° North 469 540 33,000  Level Cleveland Center
05:52PM 43.4111 -76.1597 North 461 531 33,000 -300 Level Cleveland Center
05:53PM 43.5381 -76.1375 North 458 527 32,400 -780 Descending Cleveland Center
05:54PM 43.6661 -76.1147 North 460 529 31,400 -1,020 Descending Cleveland Center
05:55PM 43.7944 -76.0917 North 462 532 30,400 -1,020 Descending Cleveland Center
05:56PM 43.9239 -76.0681 North 466 536 29,400 -1,020 Descending Cleveland Center
05:57PM 44.0711 -75.9567 29° Northeast 509 586 28,400 -720 Descending Cleveland Center
05:58PM 44.1897 -75.8514 32° Northeast 506 582 28,000 -240 Descending Cleveland Center
05:59PM 44.3000 -75.7333 37° Northeast 490 564 28,000  Level Montreal Center
06:00PM 44.4000 -75.6167 40° Northeast 510 587 28,000  Level Montreal Center
06:01PM 44.5000 -75.4833 44° Northeast 510 587 28,000  Level Montreal Center
06:02PM 44.6000 -75.3333 47° Northeast 510 587 28,000  Level Montreal Center
06:03PM 44.7000 -75.1833 47° Northeast 510 587 28,000  Level Montreal Center
06:04PM 44.8000 -75.0500 43° Northeast 510 587 28,000 -360 Level Montreal Center
06:05PM 44.9000 -74.9000 47° Northeast 510 587 27,300 -2,100 Descending Montreal Center
06:06PM 45.0000 -74.7667 43° Northeast 490 564 23,800 -3,600 Descending Montreal Center
06:07PM 45.0833 -74.6333 48° Northeast 460 529 20,200 -3,480 Descending Montreal Center
06:08PM 45.1667 -74.5000 48° Northeast 460 529 16,900 -2,400 Descending Montreal Center
06:09PM 45.2167 -74.3500 65° Northeast 400 460 15,500 -1,500 Descending Montreal Center
06:10PM 45.2833 -74.2333 51° Northeast 350 403 13,900 -1,860 Descending Montreal Center
06:11PM 45.3333 -74.1167 59° Northeast 340 391 11,800 -1,980 Descending Montreal Center
06:12PM 45.3667 -74.0167 65° Northeast 320 368 10,000 -1,920 Descending Montreal Center
06:13PM 45.4333 -73.9333 41° Northeast 300 345 8,000 -1,740 Descending Montreal Center
06:14PM 45.5000 -73.8333 46° Northeast 290 334 6,600 -960 Descending Montreal Center
06:15PM 45.5500 -73.7667 43° Northeast 270 311 6,100 -360 Descending Montreal Center
06:16PM 45.6000 -73.7167 35° Northeast 230 265 5,900 -300 Descending Montreal Center
06:17PM 45.6500 -73.6667 35° Northeast 220 253 5,500 -960 Descending Montreal Center
06:18PM 45.7000 -73.6000 43° Northeast 220 253 4,000 -780 Descending Montreal Center
06:19PM 45.7333 -73.5167 60° Northeast 220 253 4,000  Level Montreal Center
06:20PM 45.7167 -73.4500 110° East 210 242 4,000 -300 Level Montreal Center
06:21PM 45.6667 -73.4667 193° South 190 219 3,500 -600 Descending Montreal Center
06:22PM 45.6333 -73.5167 226° Southwest 160 184 2,900 -240 Descending Montreal Center
06:23PM 45.6000 -73.5667 226° Southwest 150 173 3,100 -60 Climbing Montreal Center
06:24PM 45.5667 -73.6000 215° Southwest 150 173 2,800 -600 Descending Montreal Center
06:25PM 45.5333 -73.6500 226° Southwest 150 173 2,000 -900 Descending Montreal Center
06:26PM 45.5000 -73.6667 199° South 140 161 1,100 -840 Descending Montreal Center
06:27PM 45.4833 -73.7167 245° Southwest 130 150 400 -480 Descending Montreal Center
06:28PM 45.4500 -73.7500 215° Southwest 70 81 200 -120 Descending Montreal Center
06:29PM 45.4500 -73.7500 215° Southwest 20 23 200  Level Montreal Center